Time;durP1;ratioP1;P1;durP2;ratioP2;P2;SDS_P1;SDS_P2;PMS_P1;PMS_P2;Temp;Humidity;BMP_temperature;BMP_pressure;BME280_temperature;BME280_humidity;BME280_pressure;Samples;Min_cycle;Max_cycle;Signal;HPM_P1;HPM_P2
2022/07/18 00:00:06;;;;;;;1.92;0.55;;;14.00;54.40;;;;;;5010730;28;20483;-58
2022/07/18 00:02:33;;;;;;;0.77;0.25;;;14.10;55.30;;;;;;5021602;28;20036;-59
2022/07/18 00:05:01;;;;;;;2.80;0.20;;;14.20;53.50;;;;;;5011716;28;20144;-56
2022/07/18 00:07:28;;;;;;;4.32;0.60;;;14.20;52.40;;;;;;5013035;28;20034;-56
2022/07/18 00:09:55;;;;;;;2.78;0.40;;;14.30;51.10;;;;;;5013415;28;20025;-64
2022/07/18 00:12:22;;;;;;;1.67;0.40;;;14.10;51.50;;;;;;5012681;28;20063;-62
2022/07/18 00:14:50;;;;;;;2.05;0.38;;;13.80;51.50;;;;;;5012932;28;20022;-61
2022/07/18 00:17:17;;;;;;;0.65;0.30;;;13.50;50.80;;;;;;5019398;28;20064;-62
2022/07/18 00:19:44;;;;;;;3.58;0.43;;;13.30;50.80;;;;;;5018554;28;20613;-62
2022/07/18 00:22:11;;;;;;;3.53;0.77;;;13.20;50.80;;;;;;5019448;28;20440;-62
2022/07/18 00:24:39;;;;;;;5.78;0.57;;;13.40;51.00;;;;;;5010495;28;20052;-54
2022/07/18 00:27:07;;;;;;;11.90;1.90;;;13.50;51.30;;;;;;5010991;28;20030;-55
2022/07/18 00:29:39;;;;;;;5.22;0.55;;;13.70;49.50;;;;;;5013335;28;20440;-55
2022/07/18 00:32:07;;;;;;;0.75;0.30;;;13.70;49.30;;;;;;5006857;28;20093;-57
2022/07/18 00:34:36;;;;;;;0.80;0.30;;;13.70;50.70;;;;;;5009888;28;20096;-57
2022/07/18 00:37:03;;;;;;;5.47;1.70;;;13.80;49.70;;;;;;5008769;28;20034;-49
2022/07/18 00:39:31;;;;;;;1.77;0.57;;;13.80;50.00;;;;;;5018706;28;20112;-53
2022/07/18 00:41:58;;;;;;;3.72;0.38;;;13.90;49.90;;;;;;5014342;28;20375;-56
2022/07/18 00:44:30;;;;;;;0.55;0.20;;;13.90;49.10;;;;;;5007740;28;20029;-54
2022/07/18 00:47:01;;;;;;;1.63;0.40;;;13.90;49.50;;;;;;5006656;28;20129;-59
2022/07/18 00:49:29;;;;;;;2.10;0.65;;;14.00;49.20;;;;;;5015039;28;20149;-57
2022/07/18 00:51:56;;;;;;;0.80;0.20;;;14.00;48.30;;;;;;5008136;28;20026;-56
2022/07/18 00:54:24;;;;;;;6.68;1.15;;;14.00;47.90;;;;;;5003394;28;20030;-58
2022/07/18 00:56:51;;;;;;;5.78;1.08;;;14.00;48.50;;;;;;5009968;28;20517;-55
2022/07/18 00:59:19;;;;;;;2.33;0.30;;;14.10;48.80;;;;;;5017688;28;20583;-54
2022/07/18 01:01:47;;;;;;;7.55;0.88;;;14.20;47.30;;;;;;5005265;28;20387;-57
2022/07/18 01:04:20;;;;;;;2.42;0.50;;;14.10;47.30;;;;;;5020772;28;20607;-53
2022/07/18 01:06:49;;;;;;;1.13;0.38;;;14.20;48.00;;;;;;5004487;28;20030;-57
2022/07/18 01:09:18;;;;;;;2.08;0.50;;;14.20;47.70;;;;;;5029325;28;20033;-54
2022/07/18 01:11:48;;;;;;;2.03;0.40;;;14.10;46.90;;;;;;5004369;28;20041;-55
2022/07/18 01:14:16;;;;;;;2.63;0.70;;;14.20;47.80;;;;;;5006181;28;20021;-57
2022/07/18 01:16:43;;;;;;;3.67;0.40;;;14.40;48.70;;;;;;5005083;28;20034;-56
2022/07/18 01:19:12;;;;;;;1.58;0.50;;;14.50;48.40;;;;;;5004958;28;20386;-55
2022/07/18 01:21:39;;;;;;;1.65;0.35;;;14.50;47.20;;;;;;5017756;28;20414;-55
2022/07/18 01:24:07;;;;;;;3.20;0.40;;;14.40;48.10;;;;;;5005595;28;20034;-55
2022/07/18 01:26:36;;;;;;;2.97;0.43;;;14.50;48.00;;;;;;5008264;28;20021;-57
2022/07/18 01:29:04;;;;;;;4.80;0.40;;;14.50;46.90;;;;;;5015173;28;20501;-56
2022/07/18 01:31:33;;;;;;;6.57;0.82;;;14.50;47.60;;;;;;5021065;28;20144;-56
2022/07/18 01:34:01;;;;;;;1.98;0.50;;;14.50;47.90;;;;;;5021935;28;20040;-57
2022/07/18 01:36:29;;;;;;;1.42;0.70;;;14.60;47.10;;;;;;5006808;28;20207;-55
2022/07/18 01:38:56;;;;;;;2.55;0.65;;;14.70;48.30;;;;;;5011236;28;20080;-55
2022/07/18 01:41:23;;;;;;;2.85;0.70;;;14.80;47.50;;;;;;5005671;28;20027;-55
2022/07/18 01:43:50;;;;;;;1.52;0.20;;;14.90;47.40;;;;;;4996791;28;20038;-56
2022/07/18 01:46:18;;;;;;;3.53;0.20;;;14.90;46.60;;;;;;5012760;28;20052;-54
2022/07/18 01:48:45;;;;;;;8.57;0.65;;;14.90;47.00;;;;;;5004068;28;20072;-54
2022/07/18 01:51:12;;;;;;;5.78;0.80;;;15.00;47.50;;;;;;5007337;28;20030;-52
2022/07/18 01:53:41;;;;;;;2.10;0.30;;;15.20;46.70;;;;;;5015805;28;20026;-54
2022/07/18 01:56:08;;;;;;;0.77;0.43;;;15.40;47.20;;;;;;5007517;28;20053;-58
2022/07/18 01:58:38;;;;;;;1.67;0.52;;;15.50;47.30;;;;;;5015763;28;20029;-60
2022/07/18 02:01:06;;;;;;;3.05;0.40;;;15.50;47.40;;;;;;4999298;28;20030;-58
2022/07/18 02:03:33;;;;;;;1.88;0.57;;;15.50;47.40;;;;;;5003596;28;20038;-59
2022/07/18 02:06:00;;;;;;;1.35;0.40;;;15.40;47.60;;;;;;5002060;28;20033;-60
2022/07/18 02:08:28;;;;;;;7.68;0.40;;;15.30;48.30;;;;;;5004897;28;20021;-60
2022/07/18 02:10:55;;;;;;;0.65;0.50;;;15.10;48.50;;;;;;5000787;28;20053;-60
2022/07/18 02:13:23;;;;;;;1.50;0.30;;;14.80;49.20;;;;;;5003008;28;20022;-60
2022/07/18 02:15:50;;;;;;;1.80;0.20;;;14.70;50.60;;;;;;5007677;28;20043;-58
2022/07/18 02:18:17;;;;;;;3.13;0.22;;;14.60;51.20;;;;;;5009946;28;20498;-57
2022/07/18 02:20:45;;;;;;;1.40;0.95;;;14.60;51.70;;;;;;5013602;28;20053;-57
2022/07/18 02:23:12;;;;;;;1.58;0.10;;;14.70;50.70;;;;;;5022780;28;20498;-55
2022/07/18 02:25:42;;;;;;;0.40;0.28;;;14.60;48.20;;;;;;5014683;28;20030;-58
2022/07/18 02:28:09;;;;;;;1.83;0.20;;;14.60;48.70;;;;;;5024846;28;20034;-56
2022/07/18 02:30:37;;;;;;;2.72;0.50;;;14.50;49.00;;;;;;5011282;28;20021;-58
2022/07/18 02:33:04;;;;;;;2.10;0.30;;;14.50;49.50;;;;;;5017895;28;20026;-56
2022/07/18 02:35:31;;;;;;;4.38;0.85;;;14.40;49.50;;;;;;5006955;28;20388;-59
2022/07/18 02:37:59;;;;;;;3.33;0.22;;;14.40;50.70;;;;;;5008041;28;20705;-55
2022/07/18 02:40:26;;;;;;;0.85;0.30;;;14.40;50.60;;;;;;5010217;28;20096;-59
2022/07/18 02:42:53;;;;;;;4.28;0.40;;;14.40;51.60;;;;;;5014941;28;20033;-58
2022/07/18 02:45:20;;;;;;;1.10;0.20;;;14.40;51.70;;;;;;5018476;28;20029;-56
2022/07/18 02:47:48;;;;;;;2.22;0.40;;;14.40;50.30;;;;;;5012394;28;20045;-52
2022/07/18 02:50:15;;;;;;;0.85;0.10;;;14.50;51.30;;;;;;5011383;28;20026;-58
2022/07/18 02:52:43;;;;;;;3.83;0.40;;;14.50;51.70;;;;;;5012356;28;20548;-57
2022/07/18 02:55:13;;;;;;;1.10;0.73;;;14.60;52.50;;;;;;5021707;28;20037;-56
2022/07/18 02:57:41;;;;;;;0.50;0.10;;;14.80;51.00;;;;;;5011315;28;20467;-58
2022/07/18 03:00:12;;;;;;;1.77;0.52;;;14.90;50.20;;;;;;5007251;28;20026;-58
2022/07/18 03:02:39;;;;;;;4.63;0.75;;;14.90;49.90;;;;;;5015419;28;20072;-58
2022/07/18 03:05:07;;;;;;;1.75;0.55;;;14.90;50.20;;;;;;5008451;28;20394;-58
2022/07/18 03:07:34;;;;;;;3.38;0.38;;;14.90;49.50;;;;;;5001552;28;20076;-58
2022/07/18 03:10:02;;;;;;;8.30;0.30;;;15.00;49.20;;;;;;5004940;28;20998;-59
2022/07/18 03:12:29;;;;;;;1.60;0.30;;;14.90;49.10;;;;;;5005667;28;20027;-59
2022/07/18 03:14:56;;;;;;;2.20;0.30;;;14.90;48.90;;;;;;5000303;28;20053;-61
2022/07/18 03:17:24;;;;;;;1.30;0.38;;;14.90;49.40;;;;;;5003118;28;20125;-59
2022/07/18 03:19:51;;;;;;;1.27;0.88;;;14.70;49.60;;;;;;4995408;28;20526;-58
2022/07/18 03:22:18;;;;;;;0.70;0.20;;;14.60;49.10;;;;;;4999358;28;20034;-57
2022/07/18 03:24:45;;;;;;;0.85;0.50;;;14.50;50.00;;;;;;5004145;28;20368;-56
2022/07/18 03:27:13;;;;;;;3.83;0.60;;;14.40;49.50;;;;;;5020506;28;20561;-58
2022/07/18 03:29:40;;;;;;;3.22;0.50;;;14.40;50.60;;;;;;5019906;28;20475;-56
2022/07/18 03:32:08;;;;;;;2.00;0.40;;;14.40;50.30;;;;;;5027279;28;20104;-56
2022/07/18 03:34:35;;;;;;;1.40;0.17;;;14.30;48.90;;;;;;5015685;28;20075;-59
2022/07/18 03:37:02;;;;;;;5.47;0.68;;;14.30;49.20;;;;;;5018274;28;20025;-56
2022/07/18 03:39:30;;;;;;;3.63;0.65;;;14.20;47.10;;;;;;5014334;28;20022;-56
2022/07/18 03:41:57;;;;;;;3.40;0.40;;;14.20;47.70;;;;;;5010235;28;20080;-57
2022/07/18 03:44:24;;;;;;;2.15;0.50;;;14.30;47.20;;;;;;5012582;28;20103;-58
2022/07/18 03:46:53;;;;;;;7.43;0.88;;;14.30;48.40;;;;;;5006714;28;20422;-58
2022/07/18 03:49:21;;;;;;;9.73;0.63;;;14.40;47.50;;;;;;5008295;28;20544;-58
2022/07/18 03:51:48;;;;;;;8.38;0.55;;;14.30;48.30;;;;;;5015042;28;20675;-58
2022/07/18 03:54:16;;;;;;;2.80;0.60;;;14.40;48.00;;;;;;5008582;28;20065;-56
2022/07/18 03:56:43;;;;;;;1.65;0.60;;;14.40;48.40;;;;;;5019037;28;20634;-56
2022/07/18 03:59:10;;;;;;;1.33;0.32;;;14.50;48.60;;;;;;5014937;28;20034;-57
2022/07/18 04:01:37;;;;;;;0.68;0.40;;;14.60;48.60;;;;;;5007805;28;20483;-59
2022/07/18 04:04:05;;;;;;;2.83;0.40;;;14.70;48.60;;;;;;5014945;28;20046;-56
2022/07/18 04:06:32;;;;;;;1.35;0.50;;;14.70;47.60;;;;;;5012710;28;20029;-58
2022/07/18 04:08:59;;;;;;;3.10;0.47;;;14.80;47.70;;;;;;5012847;28;20505;-56
2022/07/18 04:11:26;;;;;;;4.75;0.40;;;14.80;47.70;;;;;;5021254;28;20030;-57
2022/07/18 04:13:54;;;;;;;4.72;0.35;;;14.80;48.30;;;;;;5017498;28;20028;-57
2022/07/18 04:16:22;;;;;;;8.65;0.50;;;14.90;45.60;;;;;;5017897;28;20024;-58
2022/07/18 04:18:50;;;;;;;9.18;1.23;;;14.70;46.40;;;;;;5011323;28;20045;-59
2022/07/18 04:21:17;;;;;;;5.30;0.47;;;14.60;47.20;;;;;;5011075;28;20032;-57
2022/07/18 04:23:45;;;;;;;23.77;10.40;;;14.40;47.90;;;;;;5011219;28;20676;-54
2022/07/18 04:26:12;;;;;;;3.88;0.80;;;14.20;48.60;;;;;;5024071;28;20556;-59
2022/07/18 04:28:40;;;;;;;0.55;0.20;;;14.20;49.60;;;;;;5024721;28;20042;-58
2022/07/18 04:31:07;;;;;;;3.95;0.40;;;14.30;49.00;;;;;;5018196;28;20018;-59
2022/07/18 04:33:34;;;;;;;3.55;0.30;;;14.20;48.90;;;;;;5019604;28;20037;-58
2022/07/18 04:36:02;;;;;;;3.20;0.40;;;14.10;47.70;;;;;;5009732;28;20446;-59
2022/07/18 04:38:33;;;;;;;4.32;0.57;;;14.00;47.10;;;;;;5022777;28;20056;-58
2022/07/18 04:41:01;;;;;;;13.30;0.77;;;14.00;46.80;;;;;;5010153;28;20101;-56
2022/07/18 04:43:28;;;;;;;1.85;0.40;;;14.00;46.90;;;;;;5001139;28;20026;-58
2022/07/18 04:45:55;;;;;;;1.23;0.30;;;14.00;47.40;;;;;;5002732;28;20080;-56
2022/07/18 04:48:22;;;;;;;1.02;0.30;;;14.00;48.80;;;;;;5004168;28;20494;-56
2022/07/18 04:50:50;;;;;;;0.68;0.30;;;14.00;46.90;;;;;;5025957;28;20036;-57
2022/07/18 04:53:17;;;;;;;11.60;0.82;;;14.00;47.30;;;;;;5018728;28;20463;-56
2022/07/18 04:55:45;;;;;;;1.10;0.55;;;13.90;48.60;;;;;;5016365;28;20021;-60
2022/07/18 04:58:12;;;;;;;6.82;0.60;;;13.90;48.30;;;;;;5021953;28;20506;-58
2022/07/18 05:00:39;;;;;;;2.60;0.55;;;13.90;49.20;;;;;;4994314;28;20049;-58
2022/07/18 05:03:06;;;;;;;1.77;0.50;;;13.80;49.20;;;;;;5017732;28;20028;-57
2022/07/18 05:05:34;;;;;;;2.25;0.35;;;13.80;49.30;;;;;;5018694;28;20165;-58
2022/07/18 05:08:01;;;;;;;7.32;0.40;;;13.80;50.00;;;;;;5023683;28;20025;-58
2022/07/18 05:10:28;;;;;;;3.28;0.40;;;13.80;50.10;;;;;;5013703;28;20533;-57
2022/07/18 05:12:56;;;;;;;3.35;0.77;;;13.70;49.40;;;;;;5023522;28;20063;-59
2022/07/18 05:15:25;;;;;;;4.03;0.43;;;13.70;49.00;;;;;;5020368;28;20205;-59
2022/07/18 05:17:53;;;;;;;3.25;0.40;;;13.60;48.70;;;;;;5023604;28;20040;-58
2022/07/18 05:20:22;;;;;;;3.33;0.40;;;13.60;49.30;;;;;;5013789;28;20018;-57
2022/07/18 05:22:51;;;;;;;3.33;0.60;;;13.50;48.00;;;;;;5010221;28;20038;-57
2022/07/18 05:25:19;;;;;;;1.70;0.47;;;13.40;47.80;;;;;;5018693;28;20036;-56
2022/07/18 05:27:46;;;;;;;17.63;0.82;;;13.30;48.10;;;;;;5014806;28;20402;-58
2022/07/18 05:30:14;;;;;;;5.60;0.55;;;13.30;48.60;;;;;;5011456;28;20865;-56
2022/07/18 05:32:43;;;;;;;1.70;0.77;;;13.30;48.00;;;;;;5012746;28;20029;-57
2022/07/18 05:35:11;;;;;;;4.72;0.50;;;13.20;47.10;;;;;;5021636;28;20364;-57
2022/07/18 05:37:39;;;;;;;4.05;0.50;;;13.10;48.20;;;;;;5020184;28;20037;-55
2022/07/18 05:40:09;;;;;;;5.47;1.42;;;13.20;48.50;;;;;;5009137;28;20097;-55
2022/07/18 05:42:37;;;;;;;5.13;1.08;;;13.10;49.00;;;;;;5026150;28;20498;-53
2022/07/18 05:45:05;;;;;;;3.60;0.60;;;13.10;49.40;;;;;;5016738;28;20375;-51
2022/07/18 05:47:32;;;;;;;9.63;0.70;;;13.00;49.80;;;;;;5020188;28;20059;-51
2022/07/18 05:50:00;;;;;;;1.55;0.40;;;13.00;48.30;;;;;;5013547;28;20072;-50
2022/07/18 05:52:27;;;;;;;3.58;0.50;;;12.90;48.60;;;;;;5011048;28;20041;-52
2022/07/18 05:54:54;;;;;;;6.00;0.90;;;12.80;48.80;;;;;;5015147;28;20021;-54
2022/07/18 05:57:21;;;;;;;1.10;0.30;;;12.80;49.20;;;;;;5024492;28;20021;-55
2022/07/18 05:59:49;;;;;;;1.17;0.47;;;12.70;49.10;;;;;;5015343;28;20026;-52
2022/07/18 06:02:16;;;;;;;2.67;0.35;;;12.70;49.10;;;;;;5024286;28;20021;-52
2022/07/18 06:04:43;;;;;;;2.45;0.40;;;12.60;49.40;;;;;;5013350;28;20029;-52
2022/07/18 06:07:10;;;;;;;5.47;0.80;;;12.50;50.20;;;;;;5021555;28;20025;-53
2022/07/18 06:09:38;;;;;;;2.30;0.63;;;12.40;50.00;;;;;;5019410;28;20087;-54
2022/07/18 06:12:06;;;;;;;2.15;0.80;;;12.30;50.40;;;;;;5014174;28;20112;-51
2022/07/18 06:14:33;;;;;;;5.90;0.60;;;12.30;50.90;;;;;;5025648;28;20037;-51
2022/07/18 06:17:00;;;;;;;7.05;1.27;;;12.20;51.40;;;;;;5008526;28;20033;-51
2022/07/18 06:19:27;;;;;;;4.38;1.15;;;12.20;51.00;;;;;;5019024;28;20048;-51
2022/07/18 06:21:55;;;;;;;4.85;1.00;;;12.20;52.00;;;;;;5012583;28;20380;-53
2022/07/18 06:24:22;;;;;;;5.65;1.30;;;12.10;52.30;;;;;;5009576;28;20026;-50
2022/07/18 06:26:49;;;;;;;7.00;0.50;;;12.00;53.00;;;;;;5022097;28;20034;-51
2022/07/18 06:29:17;;;;;;;3.50;0.70;;;12.00;53.20;;;;;;5020332;28;20022;-50
2022/07/18 06:31:44;;;;;;;4.05;0.80;;;11.90;52.70;;;;;;5020160;28;20022;-52
2022/07/18 06:34:12;;;;;;;1.23;0.60;;;11.90;54.10;;;;;;5011782;28;20134;-49
2022/07/18 06:36:39;;;;;;;5.53;0.75;;;11.90;53.90;;;;;;4994802;28;20049;-53
2022/07/18 06:39:10;;;;;;;2.65;0.57;;;11.80;54.00;;;;;;5019362;28;20042;-50
2022/07/18 06:41:39;;;;;;;2.70;1.25;;;11.70;53.60;;;;;;5021316;28;20117;-55
2022/07/18 06:44:06;;;;;;;3.58;0.60;;;11.70;54.10;;;;;;5018306;28;20025;-55
2022/07/18 06:46:36;;;;;;;8.13;0.70;;;11.60;54.00;;;;;;5011274;28;20045;-53
2022/07/18 06:49:04;;;;;;;2.35;0.60;;;11.50;54.70;;;;;;5014198;28;20049;-55
2022/07/18 06:51:32;;;;;;;6.00;0.52;;;11.50;55.00;;;;;;5011648;28;20018;-54
2022/07/18 06:53:59;;;;;;;5.35;1.33;;;11.30;54.90;;;;;;5011062;28;20152;-56
2022/07/18 06:56:26;;;;;;;2.00;0.70;;;11.30;54.90;;;;;;5016018;28;20037;-50
2022/07/18 06:58:54;;;;;;;9.13;0.60;;;11.30;54.00;;;;;;5015385;28;20037;-63
2022/07/18 07:01:22;;;;;;;14.40;1.05;;;11.20;55.10;;;;;;5009811;28;20026;-52
2022/07/18 07:03:49;;;;;;;6.15;0.90;;;11.10;54.50;;;;;;5016245;28;20030;-53
2022/07/18 07:06:16;;;;;;;2.38;0.55;;;11.00;54.80;;;;;;5008179;28;20475;-48
2022/07/18 07:08:44;;;;;;;8.23;0.52;;;10.80;57.10;;;;;;5023673;28;20030;-54
2022/07/18 07:11:11;;;;;;;8.32;0.90;;;10.70;55.80;;;;;;5009610;28;20045;-53
2022/07/18 07:13:39;;;;;;;4.03;0.80;;;10.50;57.40;;;;;;5020799;28;20151;-57
2022/07/18 07:16:06;;;;;;;6.20;1.10;;;10.40;57.40;;;;;;5018856;28;20048;-59
2022/07/18 07:18:33;;;;;;;5.53;0.82;;;10.30;57.70;;;;;;5016879;28;20042;-50
2022/07/18 07:21:01;;;;;;;9.35;0.93;;;10.20;57.80;;;;;;5017419;28;20021;-52
2022/07/18 07:23:29;;;;;;;6.47;0.95;;;10.10;58.60;;;;;;5017800;28;20062;-50
2022/07/18 07:25:56;;;;;;;6.57;1.25;;;10.00;58.50;;;;;;5013999;28;20077;-50
2022/07/18 07:28:23;;;;;;;10.77;2.97;;;10.00;58.60;;;;;;5023591;28;20045;-54
2022/07/18 07:30:51;;;;;;;7.90;1.00;;;9.90;58.40;;;;;;5018784;28;20026;-54
2022/07/18 07:33:18;;;;;;;7.13;0.93;;;9.90;58.60;;;;;;5023326;28;20037;-51
2022/07/18 07:35:45;;;;;;;7.55;0.90;;;9.90;59.10;;;;;;5024740;28;20020;-60
2022/07/18 07:38:18;;;;;;;8.85;1.02;;;9.90;59.00;;;;;;5015546;28;20046;-51
2022/07/18 07:40:46;;;;;;;7.68;1.10;;;9.90;59.40;;;;;;5001006;28;20402;-51
2022/07/18 07:43:15;;;;;;;5.55;0.80;;;9.80;59.50;;;;;;5021098;28;20032;-55
2022/07/18 07:45:46;;;;;;;4.22;1.00;;;9.70;59.80;;;;;;5019234;28;20045;-51
2022/07/18 07:48:13;;;;;;;3.97;1.08;;;9.70;60.00;;;;;;5026897;28;20049;-50
2022/07/18 07:50:41;;;;;;;3.00;0.65;;;9.60;60.10;;;;;;5014703;28;20496;-58
2022/07/18 07:53:08;;;;;;;3.47;0.70;;;9.50;60.40;;;;;;5023352;28;20037;-54
2022/07/18 07:55:36;;;;;;;3.97;1.10;;;9.50;60.60;;;;;;5011536;28;20022;-55
2022/07/18 07:58:04;;;;;;;1.88;0.70;;;9.50;60.20;;;;;;5026619;28;20050;-52
2022/07/18 08:00:32;;;;;;;3.33;0.80;;;9.60;60.20;;;;;;5007860;28;20022;-51
2022/07/18 08:03:05;;;;;;;4.50;0.65;;;9.50;60.30;;;;;;5014369;28;20037;-53
2022/07/18 08:05:35;;;;;;;4.05;0.73;;;9.50;60.40;;;;;;5012346;28;20033;-55
2022/07/18 08:08:03;;;;;;;1.73;0.55;;;9.40;60.90;;;;;;5006860;28;20406;-50
2022/07/18 08:10:31;;;;;;;2.72;1.40;;;9.30;61.30;;;;;;5006728;28;20049;-54
2022/07/18 08:12:59;;;;;;;5.03;0.85;;;9.30;61.10;;;;;;5007257;28;20034;-53
2022/07/18 08:15:26;;;;;;;4.03;0.82;;;9.30;61.00;;;;;;5006070;28;20022;-56
2022/07/18 08:17:54;;;;;;;3.97;1.25;;;9.20;61.10;;;;;;5008053;28;20045;-56
2022/07/18 08:20:22;;;;;;;3.70;0.93;;;9.20;61.50;;;;;;5009571;28;20034;-56
2022/07/18 08:22:54;;;;;;;2.65;0.75;;;9.10;62.20;;;;;;5012956;28;20037;-54
2022/07/18 08:25:22;;;;;;;3.30;0.93;;;9.10;62.20;;;;;;5015306;28;20040;-54
2022/07/18 08:27:49;;;;;;;3.55;0.60;;;9.00;62.60;;;;;;5008026;28;20099;-51
2022/07/18 08:30:17;;;;;;;5.85;1.23;;;9.00;62.40;;;;;;5006090;28;20026;-52
2022/07/18 08:32:44;;;;;;;5.78;1.92;;;8.80;63.20;;;;;;5006928;28;20731;-51
2022/07/18 08:35:12;;;;;;;11.88;1.73;;;8.60;64.00;;;;;;5010024;28;20057;-53
2022/07/18 08:37:39;;;;;;;15.43;2.30;;;8.40;65.60;;;;;;5005104;28;20037;-53
2022/07/18 08:40:07;;;;;;;19.70;2.03;;;8.30;65.60;;;;;;5003529;28;20415;-54
2022/07/18 08:42:35;;;;;;;5.15;1.30;;;8.20;66.70;;;;;;5005060;28;20029;-51
2022/07/18 08:45:03;;;;;;;8.82;2.17;;;8.10;67.30;;;;;;5007317;28;20026;-54
2022/07/18 08:47:31;;;;;;;11.75;1.63;;;8.00;68.00;;;;;;5018580;28;20132;-56
2022/07/18 08:50:00;;;;;;;12.27;2.00;;;7.90;68.00;;;;;;5011081;28;20491;-51
2022/07/18 08:52:30;;;;;;;17.02;2.00;;;7.90;68.50;;;;;;5014621;28;20036;-54
2022/07/18 08:54:57;;;;;;;16.02;2.85;;;7.80;68.60;;;;;;5005908;28;20041;-52
2022/07/18 08:57:25;;;;;;;15.80;2.05;;;7.80;68.80;;;;;;5009418;28;20038;-54
2022/07/18 08:59:52;;;;;;;10.75;1.92;;;7.80;69.50;;;;;;5000498;28;20030;-51
2022/07/18 09:02:24;;;;;;;3.60;1.13;;;7.70;69.30;;;;;;5006496;28;20025;-59
2022/07/18 09:04:51;;;;;;;10.27;2.03;;;7.80;68.60;;;;;;5010408;28;20022;-54
2022/07/18 09:07:31;;;;;;;8.20;2.03;;;7.90;68.50;;;;;;5012888;28;20025;-53
2022/07/18 09:10:02;;;;;;;14.38;1.75;;;7.90;68.50;;;;;;5006096;28;20029;-54
2022/07/18 09:12:33;;;;;;;7.32;1.25;;;7.90;68.50;;;;;;5006397;28;20520;-51
2022/07/18 09:15:07;;;;;;;8.57;1.60;;;7.70;69.60;;;;;;5010961;28;20034;-51
2022/07/18 09:17:35;;;;;;;10.55;1.27;;;7.70;69.80;;;;;;5003240;28;20057;-52
2022/07/18 09:20:16;;;;;;;8.45;1.35;;;7.60;70.20;;;;;;5018302;28;20071;-52
2022/07/18 09:22:47;;;;;;;12.05;1.33;;;7.40;70.00;;;;;;5003165;28;20517;-52
2022/07/18 09:25:24;;;;;;;14.48;1.75;;;7.20;70.90;;;;;;5007279;28;20054;-54
2022/07/18 09:27:53;;;;;;;12.52;1.15;;;7.10;72.00;;;;;;5006739;28;20388;-56
2022/07/18 09:30:28;;;;;;;7.72;1.52;;;7.00;72.30;;;;;;5020769;28;20049;-55
2022/07/18 09:33:06;;;;;;;18.05;2.40;;;7.00;72.60;;;;;;5014773;28;20501;-56
2022/07/18 09:35:37;;;;;;;18.40;3.83;;;6.90;73.10;;;;;;5014917;28;20127;-54
2022/07/18 09:38:11;;;;;;;12.80;4.32;;;6.90;73.70;;;;;;5018496;28;20049;-51
2022/07/18 09:40:43;;;;;;;21.67;5.18;;;6.80;73.90;;;;;;5012661;28;20021;-54
2022/07/18 09:43:13;;;;;;;16.00;5.00;;;6.80;73.90;;;;;;5008660;28;20108;-56
2022/07/18 09:45:49;;;;;;;21.92;4.13;;;6.60;74.10;;;;;;5011722;28;20033;-50
2022/07/18 09:48:22;;;;;;;11.93;3.20;;;6.50;74.70;;;;;;5011744;28;20057;-52
2022/07/18 09:50:59;;;;;;;8.55;2.58;;;6.30;75.20;;;;;;5009402;28;20033;-54
2022/07/18 09:53:37;;;;;;;4.78;1.70;;;6.20;76.50;;;;;;5010190;28;20121;-55
2022/07/18 09:56:08;;;;;;;5.70;1.48;;;6.20;76.30;;;;;;5030187;28;20025;-57
2022/07/18 09:58:38;;;;;;;6.55;1.67;;;6.10;76.60;;;;;;5005216;28;20477;-53
2022/07/18 10:01:07;;;;;;;6.40;1.55;;;6.00;77.10;;;;;;5006137;28;20037;-52
2022/07/18 10:03:35;;;;;;;2.67;1.20;;;6.10;77.70;;;;;;5005291;28;20032;-56
2022/07/18 10:06:03;;;;;;;4.43;1.38;;;6.10;77.30;;;;;;5002170;28;20037;-60
2022/07/18 10:08:33;;;;;;;2.30;1.08;;;6.10;77.70;;;;;;5013847;28;20117;-57
2022/07/18 10:11:03;;;;;;;3.00;1.40;;;6.20;76.60;;;;;;5004130;28;20025;-56
2022/07/18 10:13:32;;;;;;;7.65;1.48;;;6.30;76.40;;;;;;5011656;28;20036;-53
2022/07/18 10:15:59;;;;;;;6.07;1.70;;;6.40;76.20;;;;;;5010095;28;20025;-56
2022/07/18 10:18:29;;;;;;;3.47;1.30;;;6.50;75.90;;;;;;5015366;28;20038;-53
2022/07/18 10:21:04;;;;;;;15.55;2.60;;;6.50;75.30;;;;;;5007752;28;20033;-51
2022/07/18 10:23:39;;;;;;;5.50;1.50;;;6.60;74.50;;;;;;5004715;28;20017;-54
2022/07/18 10:26:20;;;;;;;6.03;2.13;;;6.60;74.90;;;;;;5017844;28;20033;-51
2022/07/18 10:28:56;;;;;;;8.98;2.72;;;6.40;74.60;;;;;;5024535;28;20030;-54
2022/07/18 10:31:27;;;;;;;6.07;2.60;;;6.40;74.80;;;;;;5004795;28;20510;-54
2022/07/18 10:34:07;;;;;;;10.77;2.05;;;6.40;74.90;;;;;;5004652;28;20395;-53
2022/07/18 10:36:39;;;;;;;10.52;2.33;;;6.40;74.90;;;;;;5003144;28;20853;-52
2022/07/18 10:39:09;;;;;;;5.18;2.05;;;6.40;74.50;;;;;;5013627;28;20406;-51
2022/07/18 10:41:48;;;;;;;14.02;2.85;;;6.30;75.20;;;;;;5015030;28;20022;-53
2022/07/18 10:44:25;;;;;;;4.97;1.88;;;6.20;75.20;;;;;;5017678;28;20498;-51
2022/07/18 10:47:06;;;;;;;6.15;2.05;;;6.00;76.20;;;;;;5011989;28;20041;-54
2022/07/18 10:49:48;;;;;;;9.32;2.40;;;5.90;76.80;;;;;;5009504;28;20025;-52
2022/07/18 10:52:27;;;;;;;6.90;2.15;;;5.80;76.90;;;;;;5003243;28;20026;-56
2022/07/18 10:55:07;;;;;;;8.90;2.88;;;5.80;78.30;;;;;;5010898;28;20025;-56
2022/07/18 10:57:37;;;;;;;9.95;1.60;;;5.80;77.90;;;;;;5015014;28;20066;-51
2022/07/18 11:00:14;;;;;;;4.03;1.73;;;5.90;77.70;;;;;;5002261;28;20112;-54
2022/07/18 11:02:45;;;;;;;3.70;1.10;;;6.00;77.10;;;;;;5000128;28;20040;-53
2022/07/18 11:05:28;;;;;;;13.10;1.20;;;6.10;76.60;;;;;;5006464;28;20737;-53
2022/07/18 11:08:04;;;;;;;2.58;0.95;;;6.10;75.80;;;;;;5024161;28;20025;-50
2022/07/18 11:13:34;;;;;;;8.68;1.92;;;6.40;74.90;;;;;;5007913;28;20060;-51
2022/07/18 11:16:13;;;;;;;2.53;0.77;;;6.30;74.80;;;;;;5003396;28;20383;-52
2022/07/18 11:18:42;;;;;;;2.38;0.57;;;6.40;74.60;;;;;;5004274;28;20042;-50
2022/07/18 11:21:19;;;;;;;1.92;0.65;;;6.50;74.30;;;;;;5010853;28;20338;-53
2022/07/18 11:23:48;;;;;;;2.22;0.80;;;6.50;74.60;;;;;;5011383;28;20383;-55
2022/07/18 11:26:17;;;;;;;2.15;0.70;;;6.30;75.10;;;;;;5013548;28;20061;-53
2022/07/18 11:28:46;;;;;;;0.85;0.65;;;6.30;75.30;;;;;;5006501;28;20028;-59
2022/07/18 11:31:14;;;;;;;2.60;0.90;;;6.20;75.90;;;;;;5006459;28;20249;-56
2022/07/18 11:33:47;;;;;;;5.88;1.13;;;6.10;76.60;;;;;;5004935;28;20037;-55
2022/07/18 11:36:22;;;;;;;1.13;0.70;;;6.10;76.80;;;;;;5008748;28;20049;-51
2022/07/18 11:38:52;;;;;;;8.40;0.90;;;6.00;76.80;;;;;;5005256;28;20037;-50
2022/07/18 11:41:20;;;;;;;5.93;0.70;;;6.00;77.10;;;;;;5018051;28;20025;-56
2022/07/18 11:43:50;;;;;;;3.83;0.77;;;5.90;76.60;;;;;;5009750;28;20040;-58
2022/07/18 11:46:21;;;;;;;8.25;1.13;;;5.70;76.80;;;;;;5011424;28;20096;-55
2022/07/18 11:49:03;;;;;;;1.27;0.60;;;5.60;77.40;;;;;;5012349;28;20025;-53
2022/07/18 11:51:41;;;;;;;3.17;0.80;;;5.40;78.90;;;;;;5008586;28;20579;-51
2022/07/18 11:54:10;;;;;;;5.75;2.33;;;5.30;79.00;;;;;;5008437;28;20628;-55
2022/07/18 11:56:59;;;;;;;6.40;2.08;;;5.20;80.20;;;;;;5008824;28;20391;-51
2022/07/18 11:59:39;;;;;;;7.28;1.63;;;5.00;81.80;;;;;;5006828;28;20128;-56
2022/07/18 12:02:07;;;;;;;6.57;1.90;;;4.90;82.20;;;;;;5015936;28;20528;-52
2022/07/18 12:04:35;;;;;;;3.90;1.67;;;4.80;83.10;;;;;;5011125;28;20033;-52
2022/07/18 12:07:25;;;;;;;5.38;1.85;;;4.70;84.20;;;;;;5009191;28;20033;-53
2022/07/18 12:09:54;;;;;;;5.57;1.63;;;4.60;84.00;;;;;;5013424;28;20041;-63
2022/07/18 12:12:23;;;;;;;8.88;2.30;;;4.60;87.20;;;;;;5007462;28;20010;-56
2022/07/18 12:15:03;;;;;;;6.10;2.90;;;4.80;86.90;;;;;;5013171;28;20083;-54
2022/07/18 12:17:42;;;;;;;5.50;1.55;;;4.90;87.50;;;;;;5001716;28;20608;-55
2022/07/18 12:20:20;;;;;;;3.75;1.33;;;4.90;85.90;;;;;;5008154;28;20029;-49
2022/07/18 12:23:12;;;;;;;5.43;1.83;;;5.00;84.80;;;;;;5009127;28;20020;-49
2022/07/18 12:25:44;;;;;;;3.60;1.58;;;5.10;83.30;;;;;;5010383;28;20066;-53
2022/07/18 12:28:16;;;;;;;3.38;1.45;;;5.10;82.80;;;;;;5008113;28;20536;-56
2022/07/18 12:30:44;;;;;;;6.13;1.23;;;5.10;84.10;;;;;;4999948;28;20169;-50
2022/07/18 12:33:11;;;;;;;3.92;1.20;;;5.10;83.80;;;;;;5016031;28;20658;-53
2022/07/18 12:35:39;;;;;;;2.00;1.38;;;5.10;83.40;;;;;;5014317;28;20041;-53
2022/07/18 12:38:11;;;;;;;2.45;1.55;;;5.10;83.20;;;;;;5020401;28;20066;-50
2022/07/18 12:40:45;;;;;;;3.08;2.35;;;5.00;83.90;;;;;;5010037;28;20382;-49
2022/07/18 12:43:28;;;;;;;3.53;1.38;;;5.00;84.60;;;;;;5013250;28;20025;-55
2022/07/18 12:45:56;;;;;;;6.63;1.17;;;4.90;85.20;;;;;;5010726;28;20022;-52
2022/07/18 12:48:24;;;;;;;3.17;1.20;;;4.90;86.00;;;;;;5009924;28;20057;-54
2022/07/18 12:51:03;;;;;;;3.08;1.00;;;4.90;86.20;;;;;;5008760;28;20029;-52
2022/07/18 12:53:33;;;;;;;6.65;1.45;;;5.00;85.80;;;;;;5003044;28;20483;-52
2022/07/18 12:56:00;;;;;;;5.82;1.38;;;5.10;85.30;;;;;;5010980;28;20026;-53
2022/07/18 12:58:27;;;;;;;3.35;1.35;;;5.30;84.90;;;;;;5010755;28;20084;-54
2022/07/18 13:00:57;;;;;;;4.45;1.20;;;5.30;83.90;;;;;;5018022;28;20189;-53
2022/07/18 13:03:25;;;;;;;4.35;1.60;;;5.40;84.10;;;;;;5007775;28;20038;-51